createdAt,value
2022-10-04T00:02:31.819Z,8.00
2022-10-04T00:05:21.402Z,7.67
2022-10-04T00:08:08.965Z,7.62
2022-10-04T00:10:56.491Z,7.82
2022-10-04T00:13:44.132Z,7.56
2022-10-04T00:16:31.743Z,7.36
2022-10-04T00:19:19.544Z,7.41
2022-10-04T00:22:07.099Z,7.87
2022-10-04T00:24:54.648Z,7.75
2022-10-04T00:27:42.198Z,7.79
2022-10-04T00:30:29.757Z,7.45
2022-10-04T00:33:17.297Z,7.69
2022-10-04T00:36:04.859Z,7.41
2022-10-04T00:38:52.397Z,7.66
2022-10-04T00:41:40.249Z,7.47
2022-10-04T00:44:27.955Z,7.37
2022-10-04T00:47:15.513Z,8.15
2022-10-04T00:50:03.049Z,8.12
2022-10-04T00:52:50.620Z,8.01
2022-10-04T00:55:38.167Z,7.44
2022-10-04T00:58:25.732Z,7.49
2022-10-04T01:01:13.322Z,7.25
2022-10-04T01:04:00.890Z,7.03
2022-10-04T01:06:48.428Z,7.30
2022-10-04T01:09:35.975Z,7.06
2022-10-04T01:12:23.522Z,7.30
2022-10-04T01:15:11.079Z,7.12
2022-10-04T01:18:01.360Z,7.29
2022-10-04T01:20:49.601Z,6.94
2022-10-04T01:23:37.146Z,7.25
2022-10-04T01:26:24.726Z,7.04
2022-10-04T01:29:12.274Z,7.25
2022-10-04T01:31:59.846Z,7.07
2022-10-04T01:34:47.391Z,7.05
2022-10-04T01:37:34.969Z,6.68
2022-10-04T01:40:22.492Z,7.18
2022-10-04T01:43:10.043Z,7.21
2022-10-04T01:45:57.636Z,7.40
2022-10-04T01:48:45.218Z,7.05
2022-10-04T01:51:34.694Z,7.22
2022-10-04T01:54:22.243Z,7.32
2022-10-04T01:57:09.785Z,7.54
2022-10-04T01:59:57.375Z,7.53
2022-10-04T02:02:44.937Z,7.42
2022-10-04T02:05:32.502Z,7.08
2022-10-04T02:08:20.040Z,6.93
2022-10-04T02:11:07.591Z,6.53
2022-10-04T02:13:55.136Z,6.18
2022-10-04T02:16:42.709Z,6.17
2022-10-04T02:19:30.262Z,5.90
2022-10-04T02:22:17.815Z,6.31
2022-10-04T02:25:05.341Z,6.65
2022-10-04T02:27:53.072Z,7.04
2022-10-04T02:30:42.654Z,7.22
2022-10-04T02:33:30.290Z,6.82
2022-10-04T02:36:17.831Z,7.02
2022-10-04T02:39:05.379Z,6.97
2022-10-04T02:41:52.919Z,6.20
2022-10-04T02:44:40.484Z,6.19
2022-10-04T02:47:28.026Z,6.39
2022-10-04T02:50:15.588Z,6.09
2022-10-04T02:53:03.130Z,6.24
2022-10-04T02:55:50.680Z,6.49
2022-10-04T02:58:38.250Z,5.74
2022-10-04T03:01:25.891Z,6.91
2022-10-04T03:04:13.566Z,6.00
2022-10-04T03:07:01.110Z,5.88
2022-10-04T03:09:48.661Z,6.17
2022-10-04T03:12:36.208Z,6.34
2022-10-04T03:15:23.748Z,6.59
2022-10-04T03:18:11.311Z,6.59
2022-10-04T03:20:58.864Z,6.20
2022-10-04T03:23:46.398Z,6.21
2022-10-04T03:26:33.957Z,6.36
2022-10-04T03:29:21.516Z,6.67
2022-10-04T03:32:09.089Z,6.79
2022-10-04T03:34:56.623Z,6.70
2022-10-04T03:37:44.186Z,6.43
2022-10-04T03:40:31.709Z,6.42
2022-10-04T03:43:19.296Z,6.46
2022-10-04T03:46:06.931Z,7.16
2022-10-04T03:48:54.596Z,6.67
2022-10-04T03:51:42.260Z,6.52
2022-10-04T03:54:29.957Z,5.95
2022-10-04T03:57:17.501Z,5.90
2022-10-04T04:00:05.062Z,6.69
2022-10-04T04:02:52.595Z,7.37
2022-10-04T04:05:40.160Z,7.59
2022-10-04T04:08:27.731Z,7.01
2022-10-04T04:11:15.285Z,6.36
2022-10-04T04:14:02.835Z,6.34
2022-10-04T04:16:50.369Z,6.34
2022-10-04T04:19:37.932Z,6.66
2022-10-04T04:22:25.482Z,6.68
2022-10-04T04:25:13.071Z,6.32
2022-10-04T04:28:00.638Z,5.92
2022-10-04T04:30:48.222Z,5.97
2022-10-04T04:33:35.796Z,5.71
2022-10-04T04:36:23.347Z,5.47
2022-10-04T04:39:10.892Z,4.87
2022-10-04T04:41:58.429Z,4.82
2022-10-04T04:44:45.993Z,5.00
2022-10-04T04:47:33.530Z,5.20
2022-10-04T04:50:21.113Z,5.58
2022-10-04T04:53:08.681Z,5.30
2022-10-04T04:56:03.824Z,5.72
2022-10-04T04:58:52.001Z,5.13
2022-10-04T05:01:39.686Z,5.13
2022-10-04T05:04:27.409Z,5.43
2022-10-04T05:07:14.949Z,6.00
2022-10-04T05:10:02.514Z,6.12
2022-10-04T05:12:50.071Z,5.43
2022-10-04T05:15:37.643Z,5.22
2022-10-04T05:18:25.261Z,5.29
2022-10-04T05:21:12.845Z,5.24
2022-10-04T05:24:00.384Z,4.74
2022-10-04T05:26:47.946Z,4.48
2022-10-04T05:29:35.492Z,4.68
2022-10-04T05:32:23.062Z,5.03
2022-10-04T05:35:10.607Z,4.90
2022-10-04T05:37:58.171Z,4.41
2022-10-04T05:40:45.714Z,5.51
2022-10-04T05:43:33.282Z,5.63
2022-10-04T05:46:20.923Z,4.89
2022-10-04T05:49:08.532Z,5.30
2022-10-04T05:51:56.079Z,6.07
2022-10-04T05:54:43.638Z,5.68
2022-10-04T05:57:31.178Z,5.17
2022-10-04T06:00:18.725Z,5.21
2022-10-04T06:03:06.283Z,5.93
2022-10-04T06:05:53.821Z,5.88
2022-10-04T06:08:41.405Z,6.73
2022-10-04T06:11:28.952Z,7.27
2022-10-04T06:14:16.511Z,5.93
2022-10-04T06:17:04.148Z,5.49
2022-10-04T06:19:51.758Z,6.02
2022-10-04T06:22:39.319Z,6.70
2022-10-04T06:25:26.856Z,7.43
2022-10-04T06:28:14.485Z,8.18
2022-10-04T06:31:02.184Z,7.90
2022-10-04T06:33:49.781Z,8.72
2022-10-04T06:36:37.315Z,8.14
2022-10-04T06:39:24.866Z,7.30
2022-10-04T06:42:12.396Z,6.59
2022-10-04T06:44:59.970Z,7.81
2022-10-04T06:47:47.534Z,7.59
2022-10-04T06:50:35.102Z,8.28
2022-10-04T06:53:22.637Z,8.81
2022-10-04T06:56:10.215Z,8.40
2022-10-04T06:58:57.753Z,8.56
2022-10-04T07:01:45.701Z,8.18
2022-10-04T07:04:55.814Z,7.62
2022-10-04T07:07:41.134Z,7.70
2022-10-04T07:10:28.668Z,7.75
2022-10-04T07:13:16.240Z,7.86
2022-10-04T07:16:03.979Z,7.97
2022-10-04T07:18:51.597Z,7.89
2022-10-04T07:21:39.187Z,7.82
2022-10-04T07:24:26.746Z,6.51
2022-10-04T07:27:14.296Z,5.80
2022-10-04T07:30:01.865Z,5.66
2022-10-04T07:32:49.416Z,6.01
2022-10-04T07:35:36.967Z,6.65
2022-10-04T07:38:24.530Z,6.66
2022-10-04T07:41:12.061Z,7.15
2022-10-04T07:43:59.634Z,6.51
2022-10-04T07:46:47.176Z,6.58
2022-10-04T07:49:34.819Z,6.09
2022-10-04T07:52:24.361Z,5.63
2022-10-04T07:55:11.923Z,6.14
2022-10-04T07:57:59.464Z,5.78
2022-10-04T08:00:47.039Z,5.34
2022-10-04T08:03:34.633Z,5.08
2022-10-04T08:06:22.257Z,5.10
2022-10-04T08:09:09.843Z,5.37
2022-10-04T08:11:57.400Z,5.18
2022-10-04T08:14:44.949Z,5.43
2022-10-04T08:17:32.520Z,5.38
2022-10-04T08:20:20.115Z,5.65
2022-10-04T08:23:07.803Z,5.62
2022-10-04T08:25:55.335Z,5.76
2022-10-04T08:28:42.895Z,5.98
2022-10-04T08:31:30.480Z,5.10
2022-10-04T08:34:18.078Z,4.93
2022-10-04T08:37:05.669Z,4.87
2022-10-04T08:39:53.245Z,5.71
2022-10-04T08:42:40.793Z,5.73
2022-10-04T08:45:28.354Z,5.74
2022-10-04T08:48:15.895Z,6.24
2022-10-04T08:51:03.440Z,6.87
2022-10-04T08:53:51.107Z,6.42
2022-10-04T08:56:40.924Z,6.40
2022-10-04T08:59:28.965Z,6.13
2022-10-04T09:02:16.566Z,6.28
2022-10-04T09:05:04.233Z,6.49
2022-10-04T09:07:51.785Z,6.86
2022-10-04T09:10:39.443Z,6.42
2022-10-04T09:13:27.084Z,6.59
2022-10-04T09:16:14.708Z,6.47
2022-10-04T09:19:02.339Z,6.19
2022-10-04T09:21:50.015Z,6.83
2022-10-04T09:24:37.560Z,6.39
2022-10-04T09:27:53.261Z,5.75
2022-10-04T09:30:32.631Z,7.08
2022-10-04T09:33:20.165Z,6.40
2022-10-04T09:36:09.719Z,6.46
2022-10-04T09:39:18.027Z,6.61
2022-10-04T09:42:04.777Z,6.80
2022-10-04T09:44:52.328Z,6.96
2022-10-04T09:47:39.889Z,7.27
2022-10-04T09:50:27.448Z,7.16
2022-10-04T09:53:15.010Z,7.58
2022-10-04T09:56:02.544Z,6.96
2022-10-04T09:58:50.195Z,6.97
2022-10-04T10:01:37.790Z,7.18
2022-10-04T10:04:25.475Z,7.37
2022-10-04T10:07:16.054Z,7.24
2022-10-04T10:10:03.700Z,7.09
2022-10-04T10:12:53.239Z,7.41
2022-10-04T10:15:40.962Z,7.51
2022-10-04T10:18:30.497Z,7.88
2022-10-04T10:21:18.063Z,8.21
2022-10-04T10:24:05.593Z,8.00
2022-10-04T10:26:53.165Z,7.87
2022-10-04T10:29:40.708Z,8.07
2022-10-04T10:32:28.256Z,8.09
2022-10-04T10:35:15.818Z,8.33
2022-10-04T10:38:04.766Z,8.67
2022-10-04T10:40:52.551Z,8.77
2022-10-04T10:43:40.092Z,8.82
2022-10-04T10:46:27.688Z,8.76
2022-10-04T10:49:18.859Z,8.79
2022-10-04T10:52:08.980Z,8.55
2022-10-04T10:54:56.538Z,7.87
2022-10-04T10:57:44.094Z,7.68
2022-10-04T11:00:31.629Z,8.44
2022-10-04T11:03:23.726Z,8.54
2022-10-04T11:06:12.968Z,8.21
2022-10-04T11:09:00.523Z,7.58
2022-10-04T11:11:48.075Z,7.89
2022-10-04T11:14:35.629Z,7.91
2022-10-04T11:17:23.169Z,8.23
2022-10-04T11:20:10.725Z,7.19
2022-10-04T11:22:58.300Z,7.90
2022-10-04T11:25:45.835Z,7.75
2022-10-04T11:28:33.433Z,8.63
2022-10-04T11:31:21.040Z,9.03
2022-10-04T11:34:12.103Z,7.18
2022-10-04T11:37:01.977Z,7.98
2022-10-04T11:39:49.539Z,7.74
2022-10-04T11:42:37.098Z,7.61
2022-10-04T11:45:24.664Z,7.40
2022-10-04T11:48:12.217Z,7.72
2022-10-04T11:50:59.764Z,8.01
2022-10-04T11:53:47.317Z,7.55
2022-10-04T11:56:34.882Z,7.54
2022-10-04T11:59:22.420Z,8.32
2022-10-04T12:02:09.997Z,8.67
2022-10-04T12:04:57.572Z,8.07
2022-10-04T12:07:45.195Z,7.38
2022-10-04T12:10:32.766Z,6.36
2022-10-04T12:13:20.320Z,5.82
2022-10-04T12:16:07.926Z,6.31
2022-10-04T12:18:55.491Z,4.56
2022-10-04T12:21:43.067Z,4.84
2022-10-04T12:24:30.601Z,4.42
2022-10-04T12:27:18.254Z,4.69
2022-10-04T12:30:05.790Z,5.04
2022-10-04T12:32:57.732Z,4.78
2022-10-04T12:35:45.798Z,4.92
2022-10-04T12:38:33.356Z,6.00
2022-10-04T12:41:20.893Z,6.36
2022-10-04T12:44:08.485Z,4.95
2022-10-04T12:46:56.018Z,4.60
2022-10-04T12:49:43.675Z,4.06
2022-10-04T12:52:31.212Z,4.55
2022-10-04T12:55:18.767Z,4.60
2022-10-04T12:58:06.293Z,4.59
2022-10-04T13:00:54.699Z,4.06
2022-10-04T13:03:44.299Z,3.77
2022-10-04T13:06:31.859Z,3.44
2022-10-04T13:09:19.414Z,3.52
2022-10-04T13:12:06.975Z,3.41
2022-10-04T13:14:54.504Z,3.90
2022-10-04T13:17:42.062Z,3.67
2022-10-04T13:20:30.668Z,3.82
2022-10-04T13:23:18.233Z,3.25
2022-10-04T13:26:05.766Z,2.94
2022-10-04T13:28:55.329Z,3.27
2022-10-04T13:31:43.389Z,2.93
2022-10-04T13:34:31.313Z,3.04
2022-10-04T13:37:18.856Z,2.86
2022-10-04T13:40:06.428Z,2.81
2022-10-04T13:42:53.983Z,2.98
2022-10-04T13:45:41.598Z,2.89
2022-10-04T13:48:29.252Z,2.87
2022-10-04T13:51:16.780Z,2.89
2022-10-04T13:54:04.349Z,2.62
2022-10-04T13:56:51.903Z,2.71
2022-10-04T13:59:39.530Z,2.63
2022-10-04T14:02:27.057Z,2.58
2022-10-04T14:05:14.680Z,2.56
2022-10-04T14:08:02.245Z,2.46
2022-10-04T14:10:49.825Z,2.41
2022-10-04T14:13:37.398Z,2.35
2022-10-04T14:16:25.011Z,2.11
2022-10-04T14:19:12.597Z,2.34
2022-10-04T14:22:00.169Z,2.18
2022-10-04T14:24:47.717Z,1.99
2022-10-04T14:27:35.263Z,1.98
2022-10-04T14:30:22.908Z,2.03
2022-10-04T14:33:12.435Z,1.97
2022-10-04T14:36:00.012Z,1.99
2022-10-04T14:38:47.571Z,2.05
2022-10-04T14:41:35.131Z,1.94
2022-10-04T14:44:22.664Z,1.82
2022-10-04T14:47:10.217Z,1.82
2022-10-04T14:50:00.264Z,1.96
2022-10-04T14:52:48.263Z,1.74
2022-10-04T14:55:37.793Z,1.71
2022-10-04T14:58:25.348Z,1.61
2022-10-04T15:01:12.970Z,1.60
2022-10-04T15:04:00.672Z,1.74
2022-10-04T15:06:48.601Z,1.57
2022-10-04T15:09:36.503Z,1.67
2022-10-04T15:12:40.795Z,1.73
2022-10-04T15:15:31.582Z,1.83
2022-10-04T15:18:19.140Z,1.92
2022-10-04T15:21:06.695Z,1.63
2022-10-04T15:23:54.394Z,1.64
2022-10-04T15:26:42.040Z,1.74
2022-10-04T15:29:29.592Z,1.90
2022-10-04T15:32:19.146Z,1.86
2022-10-04T15:35:06.705Z,1.68
2022-10-04T15:37:54.350Z,1.67
2022-10-04T15:40:41.907Z,1.57
2022-10-04T15:43:29.471Z,1.64
2022-10-04T15:46:17.055Z,1.71
2022-10-04T15:49:04.682Z,1.82
2022-10-04T15:51:54.216Z,1.61
2022-10-04T15:54:41.763Z,1.73
2022-10-04T15:57:29.378Z,1.81
2022-10-04T16:00:16.934Z,1.76
2022-10-04T16:03:04.473Z,1.78
2022-10-04T16:05:52.055Z,1.67
2022-10-04T16:08:39.585Z,1.73
2022-10-04T16:11:27.141Z,1.87
2022-10-04T16:14:14.693Z,1.94
2022-10-04T16:17:02.268Z,1.89
2022-10-04T16:19:49.813Z,1.88
2022-10-04T16:22:37.377Z,1.78
2022-10-04T16:25:24.931Z,1.97
2022-10-04T16:28:12.597Z,2.01
2022-10-04T16:31:00.219Z,1.99
2022-10-04T16:33:47.886Z,2.11
2022-10-04T16:36:35.421Z,2.29
2022-10-04T16:39:22.977Z,2.11
2022-10-04T16:42:15.192Z,2.05
2022-10-04T16:45:03.081Z,2.13
2022-10-04T16:47:50.651Z,1.99
2022-10-04T16:50:38.191Z,2.15
2022-10-04T16:53:25.735Z,2.23
2022-10-04T16:56:13.287Z,2.18
2022-10-04T16:59:00.861Z,2.14
2022-10-04T17:01:52.934Z,2.27
2022-10-04T17:04:42.586Z,2.50
2022-10-04T17:07:30.137Z,2.38
2022-10-04T17:10:17.702Z,2.38
2022-10-04T17:13:05.289Z,2.09
2022-10-04T17:15:54.989Z,2.25
2022-10-04T17:18:42.575Z,2.15
2022-10-04T17:21:30.133Z,2.34
2022-10-04T17:24:17.671Z,2.22
2022-10-04T17:27:06.060Z,2.35
2022-10-04T17:29:53.712Z,2.34
2022-10-04T17:32:41.272Z,2.41
2022-10-04T17:35:28.815Z,2.79
2022-10-04T17:38:16.371Z,2.71
2022-10-04T17:41:03.924Z,2.79
2022-10-04T17:43:51.493Z,2.89
2022-10-04T17:46:41.055Z,2.79
2022-10-04T17:49:28.715Z,2.83
2022-10-04T17:52:16.266Z,2.90
2022-10-04T17:55:05.835Z,2.83
2022-10-04T17:57:53.387Z,2.74
2022-10-04T18:00:40.961Z,3.08
2022-10-04T18:03:28.497Z,2.97
2022-10-04T18:06:16.050Z,3.19
2022-10-04T18:09:03.603Z,3.46
2022-10-04T18:11:51.163Z,3.58
2022-10-04T18:14:38.714Z,3.62
2022-10-04T18:17:26.379Z,4.10
2022-10-04T18:20:13.931Z,3.81
2022-10-04T18:23:01.499Z,3.87
2022-10-04T18:25:49.054Z,4.02
2022-10-04T18:28:36.641Z,3.71
2022-10-04T18:31:24.340Z,3.95
2022-10-04T18:34:12.131Z,4.00
2022-10-04T18:36:59.727Z,3.95
2022-10-04T18:39:49.639Z,3.72
2022-10-04T18:42:40.755Z,3.81
2022-10-04T18:45:28.305Z,3.75
2022-10-04T18:48:15.971Z,4.17
2022-10-04T18:51:09.178Z,3.70
2022-10-04T18:53:56.939Z,3.91
2022-10-04T18:56:44.496Z,4.21
2022-10-04T18:59:34.049Z,3.78
2022-10-04T19:02:21.684Z,3.72
2022-10-04T19:05:09.262Z,3.82
2022-10-04T19:07:56.823Z,3.56
2022-10-04T19:10:44.356Z,3.63
2022-10-04T19:13:31.939Z,3.44
2022-10-04T19:16:21.517Z,3.74
2022-10-04T19:19:09.198Z,3.84
2022-10-04T19:21:58.720Z,4.08
2022-10-04T19:24:46.377Z,4.12
2022-10-04T19:27:35.908Z,3.96
2022-10-04T19:30:23.465Z,3.88
2022-10-04T19:33:11.009Z,4.14
2022-10-04T19:35:58.595Z,4.13
2022-10-04T19:38:46.145Z,3.89
2022-10-04T19:41:33.696Z,4.00
2022-10-04T19:44:21.251Z,4.47
2022-10-04T19:47:08.783Z,4.32
2022-10-04T19:49:56.343Z,4.32
2022-10-04T19:52:43.894Z,4.26
2022-10-04T19:55:31.464Z,4.40
2022-10-04T19:58:19.025Z,4.23
2022-10-04T20:01:06.730Z,4.17
2022-10-04T20:03:54.302Z,4.28
2022-10-04T20:06:41.887Z,4.18
2022-10-04T20:09:29.441Z,4.00
2022-10-04T20:12:17.013Z,3.73
2022-10-04T20:15:04.573Z,3.76
2022-10-04T20:17:52.146Z,3.72
2022-10-04T20:20:39.676Z,3.93
2022-10-04T20:23:27.233Z,3.91
2022-10-04T20:26:14.771Z,3.94
2022-10-04T20:29:02.348Z,3.88
2022-10-04T20:31:49.926Z,3.68
2022-10-04T20:34:37.572Z,3.50
2022-10-04T20:37:25.114Z,3.73
2022-10-04T20:40:12.667Z,3.79
2022-10-04T20:43:00.211Z,3.60
2022-10-04T20:45:47.851Z,3.83
2022-10-04T20:48:35.421Z,3.68
2022-10-04T20:51:22.975Z,3.66
2022-10-04T20:54:10.632Z,4.00
2022-10-04T20:57:00.147Z,3.48
2022-10-04T20:59:47.709Z,3.67
2022-10-04T21:02:35.273Z,3.42
2022-10-04T21:05:22.897Z,3.30
2022-10-04T21:08:10.437Z,3.02
2022-10-04T21:10:57.999Z,2.81
2022-10-04T21:13:45.549Z,2.78
2022-10-04T21:16:33.147Z,2.49
2022-10-04T21:19:20.711Z,2.48
2022-10-04T21:22:08.298Z,2.73
2022-10-04T21:24:55.877Z,2.67
2022-10-04T21:27:43.450Z,2.90
2022-10-04T21:30:31.086Z,2.74
2022-10-04T21:33:18.632Z,3.11
2022-10-04T21:36:06.183Z,3.02
2022-10-04T21:38:53.725Z,3.14
2022-10-04T21:41:41.280Z,3.31
2022-10-04T21:44:28.812Z,3.07
2022-10-04T21:47:16.375Z,2.59
2022-10-04T21:50:03.931Z,2.84
2022-10-04T21:52:51.498Z,2.80
2022-10-04T21:55:39.045Z,3.19
2022-10-04T21:58:26.595Z,2.90
2022-10-04T22:01:14.170Z,2.96
2022-10-04T22:04:01.767Z,2.96
2022-10-04T22:06:49.647Z,2.89
2022-10-04T22:09:37.357Z,2.95
2022-10-04T22:12:24.929Z,2.89
2022-10-04T22:15:12.526Z,2.82
2022-10-04T22:18:00.095Z,2.66
2022-10-04T22:20:47.749Z,2.52
2022-10-04T22:23:35.291Z,2.62
2022-10-04T22:26:22.842Z,2.64
2022-10-04T22:29:10.491Z,2.62
2022-10-04T22:31:58.066Z,2.64
2022-10-04T22:34:45.676Z,2.49
2022-10-04T22:37:33.233Z,2.68
2022-10-04T22:40:20.802Z,2.61
2022-10-04T22:43:08.346Z,2.38
2022-10-04T22:45:55.980Z,2.43
2022-10-04T22:48:43.547Z,2.37
2022-10-04T22:51:31.114Z,2.64
2022-10-04T22:54:18.681Z,2.54
2022-10-04T22:57:06.220Z,2.65
2022-10-04T22:59:53.786Z,2.48
2022-10-04T23:02:41.379Z,2.59
2022-10-04T23:05:28.973Z,2.77
2022-10-04T23:08:16.572Z,2.76
2022-10-04T23:11:04.112Z,2.39
2022-10-04T23:13:51.661Z,2.24
2022-10-04T23:16:40.468Z,2.40
2022-10-04T23:19:28.024Z,2.36
2022-10-04T23:22:15.573Z,2.73
2022-10-04T23:25:03.148Z,2.53
2022-10-04T23:27:50.707Z,2.65
2022-10-04T23:30:38.377Z,2.81
2022-10-04T23:33:25.921Z,2.82
2022-10-04T23:36:13.509Z,2.65
2022-10-04T23:39:01.063Z,2.95
2022-10-04T23:41:48.619Z,2.94
2022-10-04T23:44:36.157Z,3.16
2022-10-04T23:47:23.724Z,2.89
2022-10-04T23:50:11.250Z,2.82
2022-10-04T23:52:58.823Z,2.60
2022-10-04T23:55:46.379Z,2.78
2022-10-04T23:58:34.046Z,2.68
